createdAt,value
2017-01-03T00:00:58.513Z,-11.61
2017-01-03T00:01:58.494Z,-11.6
2017-01-03T00:02:58.461Z,-11.64
2017-01-03T00:03:58.433Z,-11.56
2017-01-03T00:04:58.402Z,-11.6
2017-01-03T00:06:13.296Z,-11.58
2017-01-03T00:06:58.562Z,-11.56
2017-01-03T00:07:58.914Z,-11.8
2017-01-03T00:08:58.300Z,-11.77
2017-01-03T00:09:58.276Z,-11.61
2017-01-03T00:10:58.258Z,-11.71
2017-01-03T00:11:58.227Z,-11.73
2017-01-03T00:12:58.192Z,-11.74
2017-01-03T00:13:58.168Z,-11.84
2017-01-03T00:14:58.149Z,-11.82
2017-01-03T00:15:58.111Z,-11.82
2017-01-03T00:16:58.091Z,-11.85
2017-01-03T00:17:58.063Z,-11.87
2017-01-03T00:18:58.038Z,-11.91
2017-01-03T00:19:58.018Z,-11.84
2017-01-03T00:20:57.991Z,-11.92
2017-01-03T00:21:57.960Z,-11.95
2017-01-03T00:22:57.930Z,-12
2017-01-03T00:23:57.905Z,-11.9
2017-01-03T00:24:57.879Z,-11.88
2017-01-03T00:25:57.848Z,-11.88
2017-01-03T00:26:57.841Z,-11.92
2017-01-03T00:27:57.804Z,-12.03
2017-01-03T00:28:57.783Z,-11.85
2017-01-03T00:29:57.753Z,-11.98
2017-01-03T00:30:57.717Z,-11.98
2017-01-03T00:31:57.701Z,-11.94
2017-01-03T00:32:57.677Z,-11.88
2017-01-03T00:33:57.859Z,-11.92
2017-01-03T00:34:57.617Z,-12.08
2017-01-03T00:35:57.591Z,-12.16
2017-01-03T00:36:57.562Z,-12.08
2017-01-03T00:37:57.528Z,-12.13
2017-01-03T00:38:57.532Z,-12.08
2017-01-03T00:39:57.512Z,-12.12
2017-01-03T00:40:57.457Z,-12.1
2017-01-03T00:41:57.457Z,-12.09
2017-01-03T00:42:57.408Z,-12.16
2017-01-03T00:43:57.383Z,-12.19
2017-01-03T00:44:57.347Z,-12.31
2017-01-03T00:45:57.318Z,-12.28
2017-01-03T00:46:57.302Z,-12.36
2017-01-03T00:47:57.271Z,-12.34
2017-01-03T00:48:57.240Z,-12.38
2017-01-03T00:49:57.216Z,-12.34
2017-01-03T00:50:57.195Z,-12.31
2017-01-03T00:51:57.168Z,-12.36
2017-01-03T00:52:57.827Z,-12.3
2017-01-03T00:53:57.109Z,-12.27
2017-01-03T00:54:57.073Z,-12.3
2017-01-03T00:55:57.056Z,-12.23
2017-01-03T00:56:57.026Z,-12.23
2017-01-03T00:57:56.994Z,-12.24
2017-01-03T00:58:56.978Z,-12.28
2017-01-03T00:59:56.957Z,-12.32
2017-01-03T01:00:56.921Z,-12.24
2017-01-03T01:01:56.902Z,-12.16
2017-01-03T01:02:56.876Z,-12.12
2017-01-03T01:03:56.843Z,-12.05
2017-01-03T01:04:56.802Z,-12.06
2017-01-03T01:05:56.791Z,-12.1
2017-01-03T01:06:56.760Z,-12.1
2017-01-03T01:07:56.727Z,-12.1
2017-01-03T01:08:56.706Z,-12.09
2017-01-03T01:09:56.689Z,-12.12
2017-01-03T01:10:56.651Z,-12.13
2017-01-03T01:11:56.623Z,-12.57
2017-01-03T01:12:56.603Z,-12.87
2017-01-03T01:13:56.566Z,-13.02
2017-01-03T01:14:56.557Z,-13.09
2017-01-03T01:15:56.614Z,-13.14
2017-01-03T01:16:56.483Z,-13.23
2017-01-03T01:17:56.474Z,-13.24
2017-01-03T01:18:56.452Z,-13.22
2017-01-03T01:19:56.408Z,-13.13
2017-01-03T01:20:56.385Z,-13.16
2017-01-03T01:21:56.352Z,-12.95
2017-01-03T01:22:56.330Z,-12.92
2017-01-03T01:23:56.299Z,-12.92
2017-01-03T01:24:56.266Z,-12.94
2017-01-03T01:25:56.244Z,-13.16
2017-01-03T01:26:56.211Z,-13.14
2017-01-03T01:27:56.195Z,-13.16
2017-01-03T01:28:56.151Z,-13.13
2017-01-03T01:29:56.128Z,-13.23
2017-01-03T01:30:56.123Z,-13.3
2017-01-03T01:31:56.072Z,-13.33
2017-01-03T01:32:56.041Z,-13.12
2017-01-03T01:33:56.030Z,-13.19
2017-01-03T01:34:55.995Z,-13.13
2017-01-03T01:35:55.961Z,-13.23
2017-01-03T01:36:55.942Z,-13.23
2017-01-03T01:37:55.915Z,-13.27
2017-01-03T01:38:55.885Z,-13.33
2017-01-03T01:39:55.856Z,-13.26
2017-01-03T01:40:55.839Z,-13.3
2017-01-03T01:41:55.802Z,-13.4
2017-01-03T01:42:55.776Z,-13.51
2017-01-03T01:43:55.755Z,-13.61
2017-01-03T01:44:55.715Z,-13.54
2017-01-03T01:45:55.706Z,-13.49
2017-01-03T01:46:55.655Z,-13.52
2017-01-03T01:47:55.658Z,-13.47
2017-01-03T01:48:55.608Z,-13.44
2017-01-03T01:49:55.582Z,-13.31
2017-01-03T01:50:55.560Z,-13.4
2017-01-03T01:51:55.527Z,-13.43
2017-01-03T01:52:55.497Z,-13.58
2017-01-03T01:53:55.468Z,-13.73
2017-01-03T01:54:55.454Z,-13.76
2017-01-03T01:55:55.419Z,-13.81
2017-01-03T01:56:55.390Z,-13.71
2017-01-03T01:57:55.357Z,-13.7
2017-01-03T01:58:55.329Z,-13.83
2017-01-03T01:59:55.296Z,-13.95
2017-01-03T02:00:55.273Z,-13.89
2017-01-03T02:01:55.261Z,-13.8
2017-01-03T02:02:55.217Z,-13.65
2017-01-03T02:03:55.198Z,-13.71
2017-01-03T02:04:55.167Z,-13.73
2017-01-03T02:05:55.149Z,-13.8
2017-01-03T02:06:55.114Z,-13.74
2017-01-03T02:07:55.081Z,-13.62
2017-01-03T02:08:55.059Z,-13.71
2017-01-03T02:09:55.037Z,-13.7
2017-01-03T02:10:55.006Z,-13.74
2017-01-03T02:11:54.976Z,-14.09
2017-01-03T02:12:54.948Z,-14.13
2017-01-03T02:13:54.924Z,-14.31
2017-01-03T02:14:54.883Z,-14.44
2017-01-03T02:15:54.860Z,-14.41
2017-01-03T02:16:54.832Z,-14.4
2017-01-03T02:17:54.805Z,-14.33
2017-01-03T02:18:54.774Z,-14.29
2017-01-03T02:19:54.751Z,-14.2
2017-01-03T02:20:54.727Z,-14.16
2017-01-03T02:21:54.696Z,-14.19
2017-01-03T02:22:54.660Z,-14.27
2017-01-03T02:23:54.638Z,-14.16
2017-01-03T02:24:54.621Z,-14.2
2017-01-03T02:25:54.578Z,-14.18
2017-01-03T02:26:54.544Z,-14.12
2017-01-03T02:27:54.529Z,-14.19
2017-01-03T02:28:54.495Z,-14.22
2017-01-03T02:29:54.467Z,-14.29
2017-01-03T02:30:54.436Z,-14.34
2017-01-03T02:31:54.417Z,-14.34
2017-01-03T02:32:54.387Z,-14.22
2017-01-03T02:33:54.363Z,-14.16
2017-01-03T02:34:54.335Z,-14.16
2017-01-03T02:35:54.306Z,-14.19
2017-01-03T02:36:54.275Z,-14.18
2017-01-03T02:37:54.244Z,-14.29
2017-01-03T02:38:54.223Z,-14.31
2017-01-03T02:39:54.183Z,-14.31
2017-01-03T02:40:54.160Z,-14.22
2017-01-03T02:41:54.148Z,-14.22
2017-01-03T02:42:54.097Z,-14.16
2017-01-03T02:43:54.067Z,-13.84
2017-01-03T02:44:54.442Z,-13.73
2017-01-03T02:45:54.020Z,-13.51
2017-01-03T02:46:53.995Z,-13.37
2017-01-03T02:47:53.976Z,-13.19
2017-01-03T02:48:53.935Z,-13.13
2017-01-03T02:49:53.908Z,-13.13
2017-01-03T02:50:53.888Z,-13.27
2017-01-03T02:51:53.847Z,-13.2
2017-01-03T02:52:53.824Z,-13.33
2017-01-03T02:53:53.808Z,-13.47
2017-01-03T02:54:53.775Z,-13.52
2017-01-03T02:55:53.739Z,-13.51
2017-01-03T02:56:53.725Z,-13.49
2017-01-03T02:57:53.694Z,-13.41
2017-01-03T02:58:53.656Z,-13.47
2017-01-03T02:59:53.627Z,-13.45
2017-01-03T03:00:53.602Z,-13.64
2017-01-03T03:01:53.572Z,-13.58
2017-01-03T03:02:53.546Z,-13.4
2017-01-03T03:03:53.524Z,-13.35
2017-01-03T03:04:53.502Z,-13.33
2017-01-03T03:05:53.466Z,-13.43
2017-01-03T03:06:53.444Z,-13.61
2017-01-03T03:07:53.413Z,-13.73
2017-01-03T03:08:53.388Z,-13.67
2017-01-03T03:09:53.355Z,-13.71
2017-01-03T03:10:53.341Z,-13.61
2017-01-03T03:11:53.302Z,-13.43
2017-01-03T03:12:53.269Z,-13.51
2017-01-03T03:13:53.245Z,-13.52
2017-01-03T03:14:53.225Z,-13.77
2017-01-03T03:15:53.208Z,-14.18
2017-01-03T03:16:53.165Z,-14.31
2017-01-03T03:17:53.149Z,-14.5
2017-01-03T03:18:53.107Z,-14.62
2017-01-03T03:19:53.100Z,-14.65
2017-01-03T03:20:53.064Z,-14.73
2017-01-03T03:21:53.037Z,-14.82
2017-01-03T03:22:52.996Z,-14.83
2017-01-03T03:23:52.976Z,-14.66
2017-01-03T03:24:52.949Z,-14.51
2017-01-03T03:25:52.921Z,-14.45
2017-01-03T03:26:52.892Z,-14.4
2017-01-03T03:27:52.875Z,-14.47
2017-01-03T03:28:52.840Z,-14.39
2017-01-03T03:29:52.832Z,-14.51
2017-01-03T03:30:52.780Z,-14.57
2017-01-03T03:31:52.759Z,-14.51
2017-01-03T03:32:52.726Z,-14.6
2017-01-03T03:33:52.696Z,-14.69
2017-01-03T03:34:52.685Z,-14.66
2017-01-03T03:35:52.645Z,-14.68
2017-01-03T03:36:52.631Z,-14.52
2017-01-03T03:37:52.587Z,-14.62
2017-01-03T03:38:52.557Z,-14.68
2017-01-03T03:39:52.531Z,-14.62
2017-01-03T03:40:52.896Z,-14.4
2017-01-03T03:41:52.503Z,-14.45
2017-01-03T03:42:52.448Z,-14.58
2017-01-03T03:43:52.419Z,-14.52
2017-01-03T03:44:52.395Z,-14.63
2017-01-03T03:45:52.373Z,-14.84
2017-01-03T03:46:52.334Z,-14.79
2017-01-03T03:47:52.314Z,-14.97
2017-01-03T03:48:52.280Z,-14.93
2017-01-03T03:49:52.242Z,-14.86
2017-01-03T03:50:52.213Z,-14.73
2017-01-03T03:51:52.199Z,-14.78
2017-01-03T03:52:52.152Z,-14.68
2017-01-03T03:53:52.139Z,-14.68
2017-01-03T03:54:52.107Z,-14.71
2017-01-03T03:55:52.083Z,-14.71
2017-01-03T03:56:52.053Z,-14.72
2017-01-03T03:57:52.022Z,-14.6
2017-01-03T03:58:51.991Z,-14.65
2017-01-03T03:59:51.972Z,-14.71
2017-01-03T04:00:51.933Z,-14.66
2017-01-03T04:01:51.899Z,-14.52
2017-01-03T04:02:51.901Z,-14.58
2017-01-03T04:03:51.835Z,-14.51
2017-01-03T04:04:51.822Z,-14.47
2017-01-03T04:05:51.787Z,-14.5
2017-01-03T04:06:51.761Z,-14.41
2017-01-03T04:07:51.726Z,-14.41
2017-01-03T04:08:51.701Z,-14.36
2017-01-03T04:09:51.667Z,-14.2
2017-01-03T04:10:51.638Z,-14.12
2017-01-03T04:11:51.613Z,-14.08
2017-01-03T04:12:51.596Z,-13.97
2017-01-03T04:13:51.553Z,-13.78
2017-01-03T04:14:51.524Z,-13.67
2017-01-03T04:15:51.496Z,-13.59
2017-01-03T04:16:51.475Z,-14.01
2017-01-03T04:17:51.439Z,-14.18
2017-01-03T04:18:51.423Z,-14.22
2017-01-03T04:19:51.386Z,-14.31
2017-01-03T04:20:51.358Z,-14.26
2017-01-03T04:21:51.340Z,-14.22
2017-01-03T04:22:51.304Z,-14.15
2017-01-03T04:23:51.281Z,-14.31
2017-01-03T04:24:51.244Z,-14.16
2017-01-03T04:25:51.223Z,-14.18
2017-01-03T04:26:51.189Z,-14.18
2017-01-03T04:27:51.165Z,-14.19
2017-01-03T04:28:51.130Z,-14.22
2017-01-03T04:29:51.120Z,-14.22
2017-01-03T04:30:51.080Z,-14.19
2017-01-03T04:31:51.062Z,-14.09
2017-01-03T04:32:51.037Z,-14.18
2017-01-03T04:33:50.999Z,-14.3
2017-01-03T04:34:50.972Z,-14.18
2017-01-03T04:35:50.948Z,-14.31
2017-01-03T04:36:50.916Z,-14.4
2017-01-03T04:37:50.896Z,-14.41
2017-01-03T04:38:50.866Z,-14.47
2017-01-03T04:39:50.839Z,-14.37
2017-01-03T04:40:50.800Z,-14.39
2017-01-03T04:41:50.786Z,-14.31
2017-01-03T04:42:50.757Z,-14.19
2017-01-03T04:43:50.730Z,-14.1
2017-01-03T04:44:50.702Z,-14.1
2017-01-03T04:45:50.679Z,-13.89
2017-01-03T04:46:50.647Z,-13.77
2017-01-03T04:47:50.612Z,-13.58
2017-01-03T04:48:50.587Z,-13.35
2017-01-03T04:49:50.569Z,-13.24
2017-01-03T04:50:50.540Z,-13.16
2017-01-03T04:51:50.512Z,-12.95
2017-01-03T04:52:50.488Z,-12.87
2017-01-03T04:53:50.452Z,-12.74
2017-01-03T04:54:50.420Z,-12.63
2017-01-03T04:55:50.389Z,-12.48
2017-01-03T04:56:50.364Z,-12.45
2017-01-03T04:57:50.344Z,-12.54
2017-01-03T04:58:50.312Z,-12.41
2017-01-03T04:59:50.291Z,-12.41
2017-01-03T05:00:50.267Z,-12.43
2017-01-03T05:01:50.229Z,-12.38
2017-01-03T05:02:50.203Z,-12.74
2017-01-03T05:03:50.195Z,-12.85
2017-01-03T05:04:50.158Z,-13.22
2017-01-03T05:05:50.134Z,-13.2
2017-01-03T05:06:50.099Z,-13.08
2017-01-03T05:07:50.081Z,-12.98
2017-01-03T05:08:50.055Z,-13.16
2017-01-03T05:09:50.033Z,-13.23
2017-01-03T05:10:49.993Z,-13.43
2017-01-03T05:11:49.977Z,-13.71
2017-01-03T05:12:49.953Z,-13.95
2017-01-03T05:13:49.915Z,-14.08
2017-01-03T05:14:49.888Z,-13.95
2017-01-03T05:15:49.858Z,-13.81
2017-01-03T05:16:49.835Z,-13.74
2017-01-03T05:17:49.807Z,-13.78
2017-01-03T05:18:49.785Z,-14.1
2017-01-03T05:19:49.757Z,-14.2
2017-01-03T05:20:49.725Z,-14.3
2017-01-03T05:21:49.708Z,-14.44
2017-01-03T05:22:49.667Z,-14.4
2017-01-03T05:23:49.653Z,-14.4
2017-01-03T05:24:49.625Z,-14.54
2017-01-03T05:25:49.591Z,-14.6
2017-01-03T05:26:49.564Z,-14.63
2017-01-03T05:27:49.533Z,-14.71
2017-01-03T05:28:49.504Z,-14.78
2017-01-03T05:29:49.482Z,-14.82
2017-01-03T05:30:49.462Z,-14.87
2017-01-03T05:31:49.427Z,-15.2
2017-01-03T05:32:49.395Z,-15.16
2017-01-03T05:33:49.371Z,-15.33
2017-01-03T05:34:49.342Z,-15.33
2017-01-03T05:35:49.308Z,-15.45
2017-01-03T05:36:49.284Z,-15.41
2017-01-03T05:37:49.268Z,-15.35
2017-01-03T05:38:49.231Z,-15.41
2017-01-03T05:39:49.211Z,-15.38
2017-01-03T05:40:49.181Z,-15.23
2017-01-03T05:41:49.149Z,-15.38
2017-01-03T05:42:49.111Z,-15.45
2017-01-03T05:43:49.091Z,-15.47
2017-01-03T05:44:49.067Z,-15.56
2017-01-03T05:45:49.051Z,-15.43
2017-01-03T05:46:49.004Z,-15.4
2017-01-03T05:47:48.976Z,-15.38
2017-01-03T05:48:48.949Z,-15.44
2017-01-03T05:49:48.929Z,-15.5
2017-01-03T05:50:48.894Z,-15.54
2017-01-03T05:51:48.867Z,-15.45
2017-01-03T05:52:48.839Z,-15.41
2017-01-03T05:53:48.812Z,-15.54
2017-01-03T05:54:48.783Z,-15.47
2017-01-03T05:55:48.756Z,-15.48
2017-01-03T05:56:48.735Z,-15.58
2017-01-03T05:57:48.701Z,-15.56
2017-01-03T05:58:48.663Z,-15.54
2017-01-03T05:59:48.645Z,-15.58
2017-01-03T06:00:48.606Z,-15.56
2017-01-03T06:01:48.594Z,-15.58
2017-01-03T06:02:48.550Z,-15.62
2017-01-03T06:03:48.523Z,-15.59
2017-01-03T06:04:48.498Z,-15.62
2017-01-03T06:05:48.472Z,-15.59
2017-01-03T06:06:48.450Z,-15.53
2017-01-03T06:07:48.414Z,-15.33
2017-01-03T06:08:48.381Z,-15.23
2017-01-03T06:09:48.357Z,-15.25
2017-01-03T06:10:48.337Z,-15.22
2017-01-03T06:11:48.298Z,-15.35
2017-01-03T06:12:48.272Z,-15.43
2017-01-03T06:13:48.246Z,-15.62
2017-01-03T06:14:48.221Z,-15.64
2017-01-03T06:15:48.193Z,-15.68
2017-01-03T06:16:48.168Z,-15.8
2017-01-03T06:17:48.130Z,-15.76
2017-01-03T06:18:48.111Z,-15.8
2017-01-03T06:19:48.071Z,-15.65
2017-01-03T06:20:48.048Z,-15.64
2017-01-03T06:21:48.029Z,-15.59
2017-01-03T06:22:48.001Z,-15.8
2017-01-03T06:23:47.960Z,-15.74
2017-01-03T06:24:47.948Z,-15.76
2017-01-03T06:25:47.917Z,-15.94
2017-01-03T06:26:47.888Z,-15.94
2017-01-03T06:27:47.856Z,-15.76
2017-01-03T06:28:47.815Z,-15.79
2017-01-03T06:29:47.801Z,-15.74
2017-01-03T06:30:47.760Z,-15.58
2017-01-03T06:31:47.738Z,-15.62
2017-01-03T06:32:47.702Z,-15.56
2017-01-03T06:33:47.689Z,-15.56
2017-01-03T06:34:47.657Z,-15.65
2017-01-03T06:35:47.623Z,-15.64
2017-01-03T06:36:47.591Z,-15.61
2017-01-03T06:37:47.561Z,-15.54
2017-01-03T06:38:47.535Z,-15.44
2017-01-03T06:39:47.515Z,-15.38
2017-01-03T06:40:47.485Z,-15.25
2017-01-03T06:41:47.452Z,-15.14
2017-01-03T06:42:47.420Z,-15.22
2017-01-03T06:43:47.394Z,-15.23
2017-01-03T06:44:47.357Z,-15.38
2017-01-03T06:45:47.331Z,-15.38
2017-01-03T06:46:47.305Z,-15.18
2017-01-03T06:47:47.278Z,-15.23
2017-01-03T06:48:47.249Z,-15.22
2017-01-03T06:49:47.219Z,-15.15
2017-01-03T06:50:47.202Z,-14.94
2017-01-03T06:51:47.170Z,-14.94
2017-01-03T06:52:47.133Z,-15.03
2017-01-03T06:53:47.111Z,-14.84
2017-01-03T06:54:47.083Z,-14.79
2017-01-03T06:55:47.054Z,-14.89
2017-01-03T06:56:47.036Z,-15.01
2017-01-03T06:57:47.009Z,-15.16
2017-01-03T06:58:46.976Z,-15.01
2017-01-03T06:59:46.945Z,-14.94
2017-01-03T07:00:46.920Z,-14.97
2017-01-03T07:01:47.266Z,-14.94
2017-01-03T07:02:47.246Z,-15.22
2017-01-03T07:03:46.843Z,-15.35
2017-01-03T07:04:46.810Z,-15.41
2017-01-03T07:05:46.783Z,-15.61
2017-01-03T07:06:46.757Z,-15.56
2017-01-03T07:07:46.727Z,-15.58
2017-01-03T07:08:46.695Z,-15.61
2017-01-03T07:09:46.668Z,-15.58
2017-01-03T07:10:46.628Z,-15.38
2017-01-03T07:11:46.608Z,-15.15
2017-01-03T07:12:46.579Z,-14.96
2017-01-03T07:13:46.552Z,-14.82
2017-01-03T07:14:46.531Z,-14.52
2017-01-03T07:15:46.495Z,-14.55
2017-01-03T07:16:46.460Z,-14.57
2017-01-03T07:17:46.437Z,-14.83
2017-01-03T07:18:46.412Z,-14.76
2017-01-03T07:19:46.378Z,-14.78
2017-01-03T07:20:46.748Z,-14.84
2017-01-03T07:21:46.334Z,-14.76
2017-01-03T07:22:46.308Z,-14.75
2017-01-03T07:23:46.285Z,-14.58
2017-01-03T07:24:46.245Z,-14.4
2017-01-03T07:25:46.223Z,-14.18
2017-01-03T07:26:46.202Z,-13.65
2017-01-03T07:27:46.170Z,-13.3
2017-01-03T07:28:46.139Z,-13.01
2017-01-03T07:29:46.118Z,-12.78
2017-01-03T07:30:46.082Z,-12.83
2017-01-03T07:31:46.060Z,-12.72
2017-01-03T07:32:46.029Z,-12.3
2017-01-03T07:33:46.044Z,-12.03
2017-01-03T07:34:45.972Z,-11.7
2017-01-03T07:35:45.949Z,-11.53
2017-01-03T07:36:45.930Z,-11.38
2017-01-03T07:37:45.904Z,-11.24
2017-01-03T07:38:45.880Z,-11.02
2017-01-03T07:39:45.852Z,-10.9
2017-01-03T07:40:45.831Z,-10.67
2017-01-03T07:41:45.804Z,-10.5
2017-01-03T07:42:45.771Z,-10.32
2017-01-03T07:43:45.756Z,-10.24
2017-01-03T07:44:45.718Z,-9.96
2017-01-03T07:45:45.703Z,-9.79
2017-01-03T07:46:45.674Z,-9.57
2017-01-03T07:47:45.648Z,-9.88
2017-01-03T07:48:45.629Z,-9.81
2017-01-03T07:49:45.606Z,-9.53
2017-01-03T07:50:45.573Z,-9.28
2017-01-03T07:51:45.559Z,-9.06
2017-01-03T07:52:45.521Z,-8.97
2017-01-03T07:53:45.508Z,-8.81
2017-01-03T07:54:45.479Z,-8.67
2017-01-03T07:55:45.463Z,-8.5
2017-01-03T07:56:45.420Z,-8.28
2017-01-03T07:57:45.402Z,-8.45
2017-01-03T07:58:45.378Z,-8.71
2017-01-03T07:59:45.354Z,-9.05
2017-01-03T08:00:45.342Z,-8.92
2017-01-03T08:01:45.313Z,-8.89
2017-01-03T08:02:45.281Z,-8.74
2017-01-03T08:03:45.258Z,-8.71
2017-01-03T08:04:45.241Z,-8.61
2017-01-03T08:05:45.217Z,-8.39
2017-01-03T08:06:45.191Z,-8.37
2017-01-03T08:07:45.166Z,-8.35
2017-01-03T08:08:45.150Z,-8.34
2017-01-03T08:09:45.132Z,-8.4
2017-01-03T08:10:45.104Z,-8.43
2017-01-03T08:11:45.079Z,-8.58
2017-01-03T08:12:45.058Z,-8.96
2017-01-03T08:13:45.037Z,-9.24
2017-01-03T08:14:45.016Z,-9.78
2017-01-03T08:15:44.988Z,-10.08
2017-01-03T08:16:44.960Z,-10.26
2017-01-03T08:17:44.932Z,-10.37
2017-01-03T08:18:44.911Z,-10.03
2017-01-03T08:19:44.900Z,-9.87
2017-01-03T08:20:44.869Z,-9.61
2017-01-03T08:21:44.848Z,-9.26
2017-01-03T08:22:44.826Z,-9.07
2017-01-03T08:23:44.810Z,-9.16
2017-01-03T08:24:44.768Z,-9.28
2017-01-03T08:25:44.762Z,-9.7
2017-01-03T08:26:44.729Z,-10.28
2017-01-03T08:27:44.701Z,-10.44
2017-01-03T08:28:44.677Z,-10.21
2017-01-03T08:29:44.659Z,-10.11
2017-01-03T08:30:44.633Z,-9.88
2017-01-03T08:31:44.618Z,-9.49
2017-01-03T08:32:44.597Z,-9.16
2017-01-03T08:33:44.566Z,-8.74
2017-01-03T08:34:44.541Z,-8.88
2017-01-03T08:35:44.526Z,-8.96
2017-01-03T08:36:44.494Z,-8.85
2017-01-03T08:37:44.482Z,-8.71
2017-01-03T08:38:44.453Z,-9.06
2017-01-03T08:39:44.427Z,-8.91
2017-01-03T08:40:44.412Z,-8.58
2017-01-03T08:41:44.393Z,-8.5
2017-01-03T08:42:44.357Z,-8.14
2017-01-03T08:43:44.344Z,-8.06
2017-01-03T08:44:44.324Z,-8.07
2017-01-03T08:45:44.282Z,-7.78
2017-01-03T08:46:44.259Z,-7.71
2017-01-03T08:47:44.245Z,-7.41
2017-01-03T08:48:44.222Z,-7.68
2017-01-03T08:49:44.209Z,-7.6
2017-01-03T08:50:44.174Z,-7.27
2017-01-03T08:51:44.161Z,-6.84
2017-01-03T08:52:44.138Z,-6.55
2017-01-03T08:53:44.139Z,-6.29
2017-01-03T08:54:44.094Z,-6.42
2017-01-03T08:55:44.070Z,-6.66
2017-01-03T08:56:44.062Z,-7.1
2017-01-03T08:57:44.027Z,-7.57
2017-01-03T08:58:44.004Z,-7.34
2017-01-03T08:59:43.975Z,-6.87
2017-01-03T09:00:43.979Z,-7.17
2017-01-03T09:01:43.942Z,-6.96
2017-01-03T09:02:43.922Z,-7.1
2017-01-03T09:03:43.898Z,-6.72
2017-01-03T09:04:43.880Z,-6.84
2017-01-03T09:05:43.858Z,-7.23
2017-01-03T09:06:43.884Z,-7.2
2017-01-03T09:07:43.814Z,-7.05
2017-01-03T09:08:43.788Z,-6.72
2017-01-03T09:09:43.770Z,-6.45
2017-01-03T09:10:43.743Z,-6.14
2017-01-03T09:11:43.724Z,-5.82
2017-01-03T09:12:43.708Z,-5.35
2017-01-03T09:13:43.691Z,-5.17
2017-01-03T09:14:43.664Z,-4.77
2017-01-03T09:15:43.633Z,-4.56
2017-01-03T09:16:43.627Z,-4.62
2017-01-03T09:17:43.599Z,-4.54
2017-01-03T09:18:43.578Z,-4.56
2017-01-03T09:19:43.560Z,-4.67
2017-01-03T09:20:43.540Z,-4.73
2017-01-03T09:21:43.509Z,-5.45
2017-01-03T09:22:43.489Z,-5.16
2017-01-03T09:23:43.473Z,-4.85
2017-01-03T09:24:43.454Z,-4.74
2017-01-03T09:25:43.427Z,-4.36
2017-01-03T09:26:43.418Z,-4.12
2017-01-03T09:27:43.392Z,-3.91
2017-01-03T09:28:43.369Z,-3.86
2017-01-03T09:29:43.356Z,-3.59
2017-01-03T09:30:43.336Z,-3.83
2017-01-03T09:31:43.305Z,-4.56
2017-01-03T09:32:43.287Z,-5.39
2017-01-03T09:33:43.272Z,-5.35
2017-01-03T09:34:43.253Z,-5.62
2017-01-03T09:35:43.230Z,-5.88
2017-01-03T09:36:43.212Z,-5.84
2017-01-03T09:37:43.183Z,-5.81
2017-01-03T09:38:43.166Z,-5.87
2017-01-03T09:39:43.143Z,-5.92
2017-01-03T09:40:43.124Z,-5.92
2017-01-03T09:41:43.106Z,-5.98
2017-01-03T09:42:43.097Z,-5.99
2017-01-03T09:43:43.061Z,-5.88
2017-01-03T09:44:43.040Z,-5.46
2017-01-03T09:45:43.030Z,-5.25
2017-01-03T09:46:43.002Z,-4.65
2017-01-03T09:47:42.986Z,-4.26
2017-01-03T09:48:42.957Z,-4.26
2017-01-03T09:49:42.944Z,-4.12
2017-01-03T09:50:42.916Z,-4.01
2017-01-03T09:51:42.904Z,-3.94
2017-01-03T09:52:42.884Z,-3.99
2017-01-03T09:53:42.863Z,-3.99
2017-01-03T09:54:42.840Z,-3.95
2017-01-03T09:55:42.815Z,-4.55
2017-01-03T09:56:42.791Z,-4.85
2017-01-03T09:57:42.780Z,-4.77
2017-01-03T09:58:42.758Z,-4.65
2017-01-03T09:59:42.746Z,-4.01
2017-01-03T10:00:42.710Z,-3.98
2017-01-03T10:01:42.702Z,-3.94
2017-01-03T10:02:42.682Z,-3.83
2017-01-03T10:03:42.659Z,-3.65
2017-01-03T10:04:42.678Z,-3.41
2017-01-03T10:05:42.632Z,-3.19
2017-01-03T10:06:42.603Z,-3.04
2017-01-03T10:07:42.578Z,-2.66
2017-01-03T10:08:42.562Z,-2.74
2017-01-03T10:09:42.543Z,-3.15
2017-01-03T10:10:42.532Z,-3.74
2017-01-03T10:11:42.513Z,-4.4
2017-01-03T10:12:42.486Z,-4.17
2017-01-03T10:13:42.465Z,-4.74
2017-01-03T10:14:42.453Z,-4.3
2017-01-03T10:15:42.430Z,-4.31
2017-01-03T10:16:42.410Z,-4.59
2017-01-03T10:17:42.385Z,-5.09
2017-01-03T10:18:42.373Z,-5.2
2017-01-03T10:19:42.350Z,-4.94
2017-01-03T10:20:42.331Z,-4.41
2017-01-03T10:21:42.318Z,-4.41
2017-01-03T10:22:42.289Z,-3.98
2017-01-03T10:23:42.269Z,-3.74
2017-01-03T10:24:42.254Z,-3.41
2017-01-03T10:25:42.235Z,-3.34
2017-01-03T10:26:42.211Z,-3.18
2017-01-03T10:27:42.202Z,-2.93
2017-01-03T10:28:42.181Z,-2.61
2017-01-03T10:29:42.159Z,-2.37
2017-01-03T10:30:42.139Z,-2.37
2017-01-03T10:31:42.125Z,-2.8
2017-01-03T10:32:42.109Z,-3.58
2017-01-03T10:33:42.075Z,-3.74
2017-01-03T10:34:42.056Z,-3.26
2017-01-03T10:35:42.045Z,-3.12
2017-01-03T10:36:42.019Z,-3.15
2017-01-03T10:37:41.998Z,-3.15
2017-01-03T10:38:41.985Z,-3.04
2017-01-03T10:39:41.998Z,-2.79
2017-01-03T10:40:41.942Z,-2.77
2017-01-03T10:41:41.925Z,-2.98
2017-01-03T10:42:41.904Z,-3.34
2017-01-03T10:43:41.888Z,-3.05
2017-01-03T10:44:41.864Z,-3.13
2017-01-03T10:45:41.858Z,-3.55
2017-01-03T10:46:41.847Z,-3.49
2017-01-03T10:47:41.807Z,-3.37
2017-01-03T10:48:41.790Z,-3.74
2017-01-03T10:49:41.773Z,-4.23
2017-01-03T10:50:41.752Z,-5.08
2017-01-03T10:51:41.741Z,-4.99
2017-01-03T10:52:41.718Z,-4.83
2017-01-03T10:53:41.706Z,-5.17
2017-01-03T10:54:42.053Z,-4.73
2017-01-03T10:55:41.668Z,-4.51
2017-01-03T10:56:41.633Z,-4.2
2017-01-03T10:57:41.620Z,-4.2
2017-01-03T10:58:41.602Z,-4.09
2017-01-03T10:59:41.587Z,-4.37
2017-01-03T11:00:41.559Z,-3.68
2017-01-03T11:01:41.555Z,-3.13
2017-01-03T11:02:41.526Z,-3.02
2017-01-03T11:03:41.506Z,-4.13
2017-01-03T11:04:41.489Z,-4.9
2017-01-03T11:05:41.468Z,-5.52
2017-01-03T11:06:41.453Z,-5.33
2017-01-03T11:07:41.424Z,-5.05
2017-01-03T11:08:41.405Z,-5.28
2017-01-03T11:09:41.385Z,-5.24
2017-01-03T11:10:41.567Z,-4.76
2017-01-03T11:11:41.350Z,-4.31
2017-01-03T11:12:41.317Z,-3.57
2017-01-03T11:13:41.310Z,-3.1
2017-01-03T11:14:41.285Z,-2.72
2017-01-03T11:15:41.269Z,-2.86
2017-01-03T11:16:41.250Z,-2.62
2017-01-03T11:17:41.232Z,-2.38
2017-01-03T11:18:41.217Z,-2.25
2017-01-03T11:19:41.185Z,-2.28
2017-01-03T11:20:41.163Z,-2.24
2017-01-03T11:21:41.152Z,-1.83
2017-01-03T11:22:41.133Z,-2.08
2017-01-03T11:23:41.116Z,-2.32
2017-01-03T11:24:41.096Z,-2.74
2017-01-03T11:25:41.089Z,-2.62
2017-01-03T11:26:41.060Z,-2.53
2017-01-03T11:27:41.036Z,-2.53
2017-01-03T11:28:41.024Z,-2.56
2017-01-03T11:29:40.991Z,-2.53
2017-01-03T11:30:40.974Z,-2.5
2017-01-03T11:31:40.967Z,-2.25
2017-01-03T11:32:40.939Z,-2.08
2017-01-03T11:33:40.948Z,-2.04
2017-01-03T11:34:40.909Z,-2.03
2017-01-03T11:35:40.891Z,-2.08
2017-01-03T11:36:40.862Z,-2.26
2017-01-03T11:37:41.056Z,-2.22
2017-01-03T11:38:40.819Z,-2.19
2017-01-03T11:39:40.812Z,-2.82
2017-01-03T11:40:40.804Z,-3.15
2017-01-03T11:41:40.775Z,-2.69
2017-01-03T11:42:40.789Z,-2.11
2017-01-03T11:43:40.731Z,-2.22
2017-01-03T11:44:40.722Z,-1.83
2017-01-03T11:45:40.698Z,-1.53
2017-01-03T11:46:40.674Z,-1.38
2017-01-03T11:47:40.654Z,-1.95
2017-01-03T11:48:40.638Z,-2.19
2017-01-03T11:49:40.617Z,-2.08
2017-01-03T11:50:40.595Z,-2.21
2017-01-03T11:51:40.582Z,-2.06
2017-01-03T11:52:40.575Z,-1.78
2017-01-03T11:53:40.550Z,-1.5
2017-01-03T11:54:40.533Z,-1.44
2017-01-03T11:55:40.512Z,-1.36
2017-01-03T11:56:40.498Z,-1.44
2017-01-03T11:57:40.575Z,-1.49
2017-01-03T11:58:40.458Z,-1.65
2017-01-03T11:59:40.634Z,-1.92
2017-01-03T12:00:40.412Z,-2.37
2017-01-03T12:01:40.400Z,-2.69
2017-01-03T12:02:40.375Z,-3.46
2017-01-03T12:03:40.362Z,-3.77
2017-01-03T12:04:40.546Z,-3.81
2017-01-03T12:05:40.527Z,-4.1
2017-01-03T12:06:40.314Z,-4.54
2017-01-03T12:07:40.288Z,-4.55
2017-01-03T12:08:40.270Z,-4.17
2017-01-03T12:09:40.249Z,-4.13
2017-01-03T12:10:40.238Z,-3.74
2017-01-03T12:11:40.208Z,-3.59
2017-01-03T12:12:40.187Z,-3.44
2017-01-03T12:13:40.168Z,-3.34
2017-01-03T12:14:40.155Z,-3.19
2017-01-03T12:15:40.137Z,-2.97
2017-01-03T12:16:40.116Z,-3.08
2017-01-03T12:17:40.092Z,-2.93
2017-01-03T12:18:40.084Z,-2.64
2017-01-03T12:19:40.056Z,-2.51
2017-01-03T12:20:40.054Z,-2.5
2017-01-03T12:21:40.024Z,-2.64
2017-01-03T12:22:40.001Z,-3.15
2017-01-03T12:23:39.992Z,-3.08
2017-01-03T12:24:39.966Z,-2.95
2017-01-03T12:25:39.951Z,-3.19
2017-01-03T12:26:39.930Z,-3.49
2017-01-03T12:27:39.914Z,-3.57
2017-01-03T12:28:39.898Z,-3.69
2017-01-03T12:29:39.871Z,-3.79
2017-01-03T12:30:39.853Z,-3.34
2017-01-03T12:31:39.841Z,-2.98
2017-01-03T12:32:40.042Z,-3.36
2017-01-03T12:33:40.020Z,-3.91
2017-01-03T12:34:39.779Z,-3.97
2017-01-03T12:35:39.766Z,-3.77
2017-01-03T12:36:39.756Z,-3.39
2017-01-03T12:37:39.730Z,-2.66
2017-01-03T12:38:39.702Z,-2.77
2017-01-03T12:39:39.684Z,-2.82